sensor_id;sensor_type;location;lat;lon;timestamp;temperature;humidity
58363;DHT22;54977;51.510;7.522;2022-07-23T00:03:43;17.10;67.90
58363;DHT22;54977;51.510;7.522;2022-07-23T00:08:45;16.70;68.70
58363;DHT22;54977;51.510;7.522;2022-07-23T00:13:47;16.50;69.50
58363;DHT22;54977;51.510;7.522;2022-07-23T00:18:51;16.50;69.10
58363;DHT22;54977;51.510;7.522;2022-07-23T00:23:52;16.60;69.70
58363;DHT22;54977;51.510;7.522;2022-07-23T00:28:54;16.70;69.20
58363;DHT22;54977;51.510;7.522;2022-07-23T00:33:57;16.90;69.00
58363;DHT22;54977;51.510;7.522;2022-07-23T00:39:01;16.90;69.00
58363;DHT22;54977;51.510;7.522;2022-07-23T00:44:20;16.80;68.90
58363;DHT22;54977;51.510;7.522;2022-07-23T00:49:26;16.80;69.30
58363;DHT22;54977;51.510;7.522;2022-07-23T00:54:28;16.70;69.70
58363;DHT22;54977;51.510;7.522;2022-07-23T00:59:30;16.80;70.10
58363;DHT22;54977;51.510;7.522;2022-07-23T01:04:34;16.90;69.70
58363;DHT22;54977;51.510;7.522;2022-07-23T01:09:36;16.90;70.20
58363;DHT22;54977;51.510;7.522;2022-07-23T01:14:39;16.90;69.70
58363;DHT22;54977;51.510;7.522;2022-07-23T01:19:42;16.70;70.70
58363;DHT22;54977;51.510;7.522;2022-07-23T01:24:46;16.80;70.20
58363;DHT22;54977;51.510;7.522;2022-07-23T01:29:48;16.90;70.50
58363;DHT22;54977;51.510;7.522;2022-07-23T01:34:50;16.80;70.20
58363;DHT22;54977;51.510;7.522;2022-07-23T01:39:53;16.90;69.90
58363;DHT22;54977;51.510;7.522;2022-07-23T01:44:55;16.90;69.70
58363;DHT22;54977;51.510;7.522;2022-07-23T01:49:57;16.80;70.20
58363;DHT22;54977;51.510;7.522;2022-07-23T01:55:00;16.90;70.00
58363;DHT22;54977;51.510;7.522;2022-07-23T02:00:02;16.90;69.90
58363;DHT22;54977;51.510;7.522;2022-07-23T02:05:05;16.80;69.90
58363;DHT22;54977;51.510;7.522;2022-07-23T02:10:09;16.90;69.70
58363;DHT22;54977;51.510;7.522;2022-07-23T02:15:11;17.00;70.00
58363;DHT22;54977;51.510;7.522;2022-07-23T02:20:13;16.80;70.20
58363;DHT22;54977;51.510;7.522;2022-07-23T02:25:16;16.70;70.90
58363;DHT22;54977;51.510;7.522;2022-07-23T02:30:18;16.60;70.60
58363;DHT22;54977;51.510;7.522;2022-07-23T02:35:20;16.60;70.00
58363;DHT22;54977;51.510;7.522;2022-07-23T02:40:23;16.70;70.20
58363;DHT22;54977;51.510;7.522;2022-07-23T02:45:25;16.70;70.20
58363;DHT22;54977;51.510;7.522;2022-07-23T02:50:27;16.60;70.60
58363;DHT22;54977;51.510;7.522;2022-07-23T02:55:30;16.60;70.80
58363;DHT22;54977;51.510;7.522;2022-07-23T03:00:32;16.60;70.70
58363;DHT22;54977;51.510;7.522;2022-07-23T03:05:34;16.60;70.30
58363;DHT22;54977;51.510;7.522;2022-07-23T03:10:37;16.50;69.50
58363;DHT22;54977;51.510;7.522;2022-07-23T03:15:39;16.30;70.70
58363;DHT22;54977;51.510;7.522;2022-07-23T03:20:41;16.30;70.70
58363;DHT22;54977;51.510;7.522;2022-07-23T03:25:44;16.20;70.30
58363;DHT22;54977;51.510;7.522;2022-07-23T03:30:48;16.10;70.70
58363;DHT22;54977;51.510;7.522;2022-07-23T03:35:50;16.10;71.00
58363;DHT22;54977;51.510;7.522;2022-07-23T03:40:54;16.00;71.20
58363;DHT22;54977;51.510;7.522;2022-07-23T03:45:56;15.80;72.00
58363;DHT22;54977;51.510;7.522;2022-07-23T03:50:57;15.90;71.30
58363;DHT22;54977;51.510;7.522;2022-07-23T03:56:01;15.90;71.00
58363;DHT22;54977;51.510;7.522;2022-07-23T04:01:03;15.80;71.40
58363;DHT22;54977;51.510;7.522;2022-07-23T04:06:05;15.80;71.80
58363;DHT22;54977;51.510;7.522;2022-07-23T04:11:08;15.80;72.00
58363;DHT22;54977;51.510;7.522;2022-07-23T04:16:10;15.60;72.90
58363;DHT22;54977;51.510;7.522;2022-07-23T04:21:12;15.80;72.90
58363;DHT22;54977;51.510;7.522;2022-07-23T04:26:15;15.90;72.20
58363;DHT22;54977;51.510;7.522;2022-07-23T04:31:17;15.90;72.50
58363;DHT22;54977;51.510;7.522;2022-07-23T04:36:19;15.80;72.80
58363;DHT22;54977;51.510;7.522;2022-07-23T04:41:22;15.80;73.30
58363;DHT22;54977;51.510;7.522;2022-07-23T04:46:24;15.70;73.70
58363;DHT22;54977;51.510;7.522;2022-07-23T04:51:26;15.70;73.60
58363;DHT22;54977;51.510;7.522;2022-07-23T04:56:30;15.90;73.40
58363;DHT22;54977;51.510;7.522;2022-07-23T05:01:32;16.10;72.70
58363;DHT22;54977;51.510;7.522;2022-07-23T05:06:34;16.20;71.80
58363;DHT22;54977;51.510;7.522;2022-07-23T05:11:37;16.30;71.80
58363;DHT22;54977;51.510;7.522;2022-07-23T05:16:39;16.40;71.60
58363;DHT22;54977;51.510;7.522;2022-07-23T05:21:41;16.10;71.30
58363;DHT22;54977;51.510;7.522;2022-07-23T05:26:44;16.30;71.20
58363;DHT22;54977;51.510;7.522;2022-07-23T05:31:46;16.70;70.70
58363;DHT22;54977;51.510;7.522;2022-07-23T05:36:48;16.60;70.40
58363;DHT22;54977;51.510;7.522;2022-07-23T05:41:51;16.50;70.50
58363;DHT22;54977;51.510;7.522;2022-07-23T05:46:53;16.60;71.00
58363;DHT22;54977;51.510;7.522;2022-07-23T05:51:55;16.90;70.60
58363;DHT22;54977;51.510;7.522;2022-07-23T05:56:58;17.30;69.20
58363;DHT22;54977;51.510;7.522;2022-07-23T06:02:00;17.60;69.10
58363;DHT22;54977;51.510;7.522;2022-07-23T06:07:02;17.80;68.00
58363;DHT22;54977;51.510;7.522;2022-07-23T06:12:06;18.00;67.40
58363;DHT22;54977;51.510;7.522;2022-07-23T06:17:08;18.20;66.20
58363;DHT22;54977;51.510;7.522;2022-07-23T06:22:10;18.20;65.80
58363;DHT22;54977;51.510;7.522;2022-07-23T06:27:13;18.10;66.30
58363;DHT22;54977;51.510;7.522;2022-07-23T06:32:15;18.10;66.90
58363;DHT22;54977;51.510;7.522;2022-07-23T06:37:17;18.00;66.20
58363;DHT22;54977;51.510;7.522;2022-07-23T06:42:20;18.20;65.90
58363;DHT22;54977;51.510;7.522;2022-07-23T06:47:22;18.30;66.50
58363;DHT22;54977;51.510;7.522;2022-07-23T06:52:24;18.60;66.10
58363;DHT22;54977;51.510;7.522;2022-07-23T06:57:28;18.90;64.80
58363;DHT22;54977;51.510;7.522;2022-07-23T07:02:29;19.20;64.20
58363;DHT22;54977;51.510;7.522;2022-07-23T07:07:31;19.30;63.40
58363;DHT22;54977;51.510;7.522;2022-07-23T07:12:34;19.80;63.00
58363;DHT22;54977;51.510;7.522;2022-07-23T07:17:36;20.20;61.50
58363;DHT22;54977;51.510;7.522;2022-07-23T07:22:38;20.40;61.60
58363;DHT22;54977;51.510;7.522;2022-07-23T07:27:41;21.60;59.10
58363;DHT22;54977;51.510;7.522;2022-07-23T07:32:44;22.60;55.10
58363;DHT22;54977;51.510;7.522;2022-07-23T07:37:46;23.40;55.10
58363;DHT22;54977;51.510;7.522;2022-07-23T07:42:51;23.90;49.10
58363;DHT22;54977;51.510;7.522;2022-07-23T07:47:53;22.80;53.10
58363;DHT22;54977;51.510;7.522;2022-07-23T07:52:55;21.90;56.20
58363;DHT22;54977;51.510;7.522;2022-07-23T07:57:58;23.00;55.30
58363;DHT22;54977;51.510;7.522;2022-07-23T08:03:00;25.00;51.70
58363;DHT22;54977;51.510;7.522;2022-07-23T08:08:02;26.70;47.40
58363;DHT22;54977;51.510;7.522;2022-07-23T08:13:05;26.10;46.60
58363;DHT22;54977;51.510;7.522;2022-07-23T08:18:07;24.90;48.10
58363;DHT22;54977;51.510;7.522;2022-07-23T08:23:09;24.10;49.80
58363;DHT22;54977;51.510;7.522;2022-07-23T08:28:14;24.30;49.90
58363;DHT22;54977;51.510;7.522;2022-07-23T08:33:17;23.80;49.90
58363;DHT22;54977;51.510;7.522;2022-07-23T08:38:20;23.60;49.00
58363;DHT22;54977;51.510;7.522;2022-07-23T08:43:26;23.20;49.40
58363;DHT22;54977;51.510;7.522;2022-07-23T08:48:29;23.00;48.30
58363;DHT22;54977;51.510;7.522;2022-07-23T08:53:33;23.00;47.30
58363;DHT22;54977;51.510;7.522;2022-07-23T08:58:37;22.80;49.30
58363;DHT22;54977;51.510;7.522;2022-07-23T09:03:39;22.80;50.70
58363;DHT22;54977;51.510;7.522;2022-07-23T09:08:43;23.00;49.50
58363;DHT22;54977;51.510;7.522;2022-07-23T09:13:48;23.40;48.40
58363;DHT22;54977;51.510;7.522;2022-07-23T09:18:54;22.10;47.10
58363;DHT22;54977;51.510;7.522;2022-07-23T09:23:59;21.10;49.20
58363;DHT22;54977;51.510;7.522;2022-07-23T09:29:13;21.90;49.20
58363;DHT22;54977;51.510;7.522;2022-07-23T09:34:20;22.30;48.00
58363;DHT22;54977;51.510;7.522;2022-07-23T09:39:26;22.80;48.80
58363;DHT22;54977;51.510;7.522;2022-07-23T09:44:30;24.60;45.10
58363;DHT22;54977;51.510;7.522;2022-07-23T09:49:32;23.70;44.60
58363;DHT22;54977;51.510;7.522;2022-07-23T09:54:36;22.60;45.30
58363;DHT22;54977;51.510;7.522;2022-07-23T09:59:40;21.80;47.00
58363;DHT22;54977;51.510;7.522;2022-07-23T10:04:42;23.30;47.40
58363;DHT22;54977;51.510;7.522;2022-07-23T10:09:45;24.20;45.50
58363;DHT22;54977;51.510;7.522;2022-07-23T10:14:50;24.60;43.10
58363;DHT22;54977;51.510;7.522;2022-07-23T10:19:52;24.80;40.50
58363;DHT22;54977;51.510;7.522;2022-07-23T10:24:59;24.20;40.50
58363;DHT22;54977;51.510;7.522;2022-07-23T10:30:10;25.20;40.40
58363;DHT22;54977;51.510;7.522;2022-07-23T10:35:29;25.40;40.70
58363;DHT22;54977;51.510;7.522;2022-07-23T10:40:33;25.00;39.00
58363;DHT22;54977;51.510;7.522;2022-07-23T10:45:36;24.00;40.60
58363;DHT22;54977;51.510;7.522;2022-07-23T10:50:38;24.00;40.80
58363;DHT22;54977;51.510;7.522;2022-07-23T10:55:42;23.30;43.20
58363;DHT22;54977;51.510;7.522;2022-07-23T11:00:46;22.30;43.70
58363;DHT22;54977;51.510;7.522;2022-07-23T11:05:48;23.10;42.30
58363;DHT22;54977;51.510;7.522;2022-07-23T11:10:55;23.10;45.40
58363;DHT22;54977;51.510;7.522;2022-07-23T11:16:07;24.00;41.40
58363;DHT22;54977;51.510;7.522;2022-07-23T11:27:02;24.20;43.70
58363;DHT22;54977;51.510;7.522;2022-07-23T11:32:07;24.50;40.00
58363;DHT22;54977;51.510;7.522;2022-07-23T11:37:12;23.80;41.80
58363;DHT22;54977;51.510;7.522;2022-07-23T11:42:17;23.50;42.50
58363;DHT22;54977;51.510;7.522;2022-07-23T11:47:24;22.90;42.70
58363;DHT22;54977;51.510;7.522;2022-07-23T11:52:27;23.80;40.90
58363;DHT22;54977;51.510;7.522;2022-07-23T11:57:31;24.60;40.30
58363;DHT22;54977;51.510;7.522;2022-07-23T12:02:34;24.10;39.70
58363;DHT22;54977;51.510;7.522;2022-07-23T12:07:38;24.50;39.50
58363;DHT22;54977;51.510;7.522;2022-07-23T12:12:41;25.30;39.60
58363;DHT22;54977;51.510;7.522;2022-07-23T12:17:46;26.30;36.60
58363;DHT22;54977;51.510;7.522;2022-07-23T12:22:50;26.50;38.50
58363;DHT22;54977;51.510;7.522;2022-07-23T12:28:01;26.40;35.60
58363;DHT22;54977;51.510;7.522;2022-07-23T12:33:05;26.60;37.50
58363;DHT22;54977;51.510;7.522;2022-07-23T12:38:08;28.70;35.30
58363;DHT22;54977;51.510;7.522;2022-07-23T12:43:18;31.60;28.80
58363;DHT22;54977;51.510;7.522;2022-07-23T12:48:24;32.50;28.70
58363;DHT22;54977;51.510;7.522;2022-07-23T12:53:28;33.70;26.10
58363;DHT22;54977;51.510;7.522;2022-07-23T12:58:41;32.10;26.40
58363;DHT22;54977;51.510;7.522;2022-07-23T13:03:56;34.50;27.00
58363;DHT22;54977;51.510;7.522;2022-07-23T13:08:58;35.90;25.50
58363;DHT22;54977;51.510;7.522;2022-07-23T13:14:00;36.20;24.60
58363;DHT22;54977;51.510;7.522;2022-07-23T13:19:04;35.60;26.20
58363;DHT22;54977;51.510;7.522;2022-07-23T13:24:07;34.70;26.50
58363;DHT22;54977;51.510;7.522;2022-07-23T13:29:09;34.00;25.60
58363;DHT22;54977;51.510;7.522;2022-07-23T13:34:13;33.50;26.20
58363;DHT22;54977;51.510;7.522;2022-07-23T13:39:15;31.10;27.10
58363;DHT22;54977;51.510;7.522;2022-07-23T13:44:17;34.80;26.90
58363;DHT22;54977;51.510;7.522;2022-07-23T13:49:20;36.40;23.80
58363;DHT22;54977;51.510;7.522;2022-07-23T13:54:22;37.10;23.40
58363;DHT22;54977;51.510;7.522;2022-07-23T13:59:24;36.90;23.00
58363;DHT22;54977;51.510;7.522;2022-07-23T14:04:29;37.50;23.20
58363;DHT22;54977;51.510;7.522;2022-07-23T14:09:31;36.70;23.60
58363;DHT22;54977;51.510;7.522;2022-07-23T14:14:34;36.30;24.50
58363;DHT22;54977;51.510;7.522;2022-07-23T14:19:38;35.40;23.70
58363;DHT22;54977;51.510;7.522;2022-07-23T14:24:40;33.10;26.00
58363;DHT22;54977;51.510;7.522;2022-07-23T14:29:42;34.80;24.80
58363;DHT22;54977;51.510;7.522;2022-07-23T14:34:45;36.20;23.90
58363;DHT22;54977;51.510;7.522;2022-07-23T14:39:47;35.90;23.70
58363;DHT22;54977;51.510;7.522;2022-07-23T14:44:49;31.50;27.20
58363;DHT22;54977;51.510;7.522;2022-07-23T14:49:52;29.10;29.00
58363;DHT22;54977;51.510;7.522;2022-07-23T14:54:54;30.20;27.90
58363;DHT22;54977;51.510;7.522;2022-07-23T14:59:56;31.10;28.10
58363;DHT22;54977;51.510;7.522;2022-07-23T15:04:59;29.50;28.80
58363;DHT22;54977;51.510;7.522;2022-07-23T15:10:03;31.00;28.20
58363;DHT22;54977;51.510;7.522;2022-07-23T15:15:06;33.40;26.60
58363;DHT22;54977;51.510;7.522;2022-07-23T15:20:10;31.80;27.00
58363;DHT22;54977;51.510;7.522;2022-07-23T15:25:12;31.20;28.10
58363;DHT22;54977;51.510;7.522;2022-07-23T15:30:13;32.30;26.60
58363;DHT22;54977;51.510;7.522;2022-07-23T15:35:17;32.60;26.80
58363;DHT22;54977;51.510;7.522;2022-07-23T15:40:19;31.10;27.50
58363;DHT22;54977;51.510;7.522;2022-07-23T15:45:21;27.70;29.40
58363;DHT22;54977;51.510;7.522;2022-07-23T15:50:24;27.60;31.00
58363;DHT22;54977;51.510;7.522;2022-07-23T15:55:26;29.50;29.20
58363;DHT22;54977;51.510;7.522;2022-07-23T16:00:28;30.50;28.10
58363;DHT22;54977;51.510;7.522;2022-07-23T16:05:31;32.60;26.30
58363;DHT22;54977;51.510;7.522;2022-07-23T16:10:34;33.20;26.90
58363;DHT22;54977;51.510;7.522;2022-07-23T16:15:36;34.80;25.50
58363;DHT22;54977;51.510;7.522;2022-07-23T16:20:40;35.10;25.40
58363;DHT22;54977;51.510;7.522;2022-07-23T16:25:42;34.90;25.10
58363;DHT22;54977;51.510;7.522;2022-07-23T16:30:44;30.90;26.50
58363;DHT22;54977;51.510;7.522;2022-07-23T16:35:47;29.90;28.10
58363;DHT22;54977;51.510;7.522;2022-07-23T16:40:49;29.10;29.30
58363;DHT22;54977;51.510;7.522;2022-07-23T16:45:51;29.60;29.60
58363;DHT22;54977;51.510;7.522;2022-07-23T16:50:54;29.90;28.90
58363;DHT22;54977;51.510;7.522;2022-07-23T16:55:56;30.20;30.00
58363;DHT22;54977;51.510;7.522;2022-07-23T17:00:58;31.00;28.10
58363;DHT22;54977;51.510;7.522;2022-07-23T17:06:02;30.20;28.70
58363;DHT22;54977;51.510;7.522;2022-07-23T17:11:04;28.50;30.00
58363;DHT22;54977;51.510;7.522;2022-07-23T17:16:06;27.50;31.60
58363;DHT22;54977;51.510;7.522;2022-07-23T17:21:09;27.40;32.40
58363;DHT22;54977;51.510;7.522;2022-07-23T17:26:12;27.70;32.20
58363;DHT22;54977;51.510;7.522;2022-07-23T17:31:14;26.20;33.40
58363;DHT22;54977;51.510;7.522;2022-07-23T17:36:17;27.00;32.90
58363;DHT22;54977;51.510;7.522;2022-07-23T17:41:19;26.50;32.50
58363;DHT22;54977;51.510;7.522;2022-07-23T17:46:21;26.20;34.80
58363;DHT22;54977;51.510;7.522;2022-07-23T17:51:24;25.80;34.90
58363;DHT22;54977;51.510;7.522;2022-07-23T17:56:26;25.10;35.70
58363;DHT22;54977;51.510;7.522;2022-07-23T18:01:28;24.50;36.40
58363;DHT22;54977;51.510;7.522;2022-07-23T18:06:31;24.30;37.00
58363;DHT22;54977;51.510;7.522;2022-07-23T18:11:33;24.80;37.70
58363;DHT22;54977;51.510;7.522;2022-07-23T18:16:37;24.30;38.00
58363;DHT22;54977;51.510;7.522;2022-07-23T18:21:40;24.10;37.90
58363;DHT22;54977;51.510;7.522;2022-07-23T18:26:42;23.50;38.40
58363;DHT22;54977;51.510;7.522;2022-07-23T18:31:44;23.50;38.60
58363;DHT22;54977;51.510;7.522;2022-07-23T18:36:47;23.30;38.90
58363;DHT22;54977;51.510;7.522;2022-07-23T18:41:49;23.10;39.30
58363;DHT22;54977;51.510;7.522;2022-07-23T18:46:51;23.10;40.00
58363;DHT22;54977;51.510;7.522;2022-07-23T18:51:54;22.80;40.40
58363;DHT22;54977;51.510;7.522;2022-07-23T18:56:56;22.90;40.60
58363;DHT22;54977;51.510;7.522;2022-07-23T19:01:58;23.00;40.60
58363;DHT22;54977;51.510;7.522;2022-07-23T19:07:01;23.20;40.70
58363;DHT22;54977;51.510;7.522;2022-07-23T19:12:04;22.80;41.20
58363;DHT22;54977;51.510;7.522;2022-07-23T19:17:06;22.70;41.70
58363;DHT22;54977;51.510;7.522;2022-07-23T19:22:09;22.50;42.10
58363;DHT22;54977;51.510;7.522;2022-07-23T19:27:11;22.50;42.20
58363;DHT22;54977;51.510;7.522;2022-07-23T19:32:13;22.30;42.60
58363;DHT22;54977;51.510;7.522;2022-07-23T19:37:16;22.10;43.10
58363;DHT22;54977;51.510;7.522;2022-07-23T19:42:18;21.90;44.30
58363;DHT22;54977;51.510;7.522;2022-07-23T19:47:20;21.70;45.60
58363;DHT22;54977;51.510;7.522;2022-07-23T19:52:23;21.40;46.10
58363;DHT22;54977;51.510;7.522;2022-07-23T19:57:25;21.20;46.90
58363;DHT22;54977;51.510;7.522;2022-07-23T20:02:27;21.00;47.70
58363;DHT22;54977;51.510;7.522;2022-07-23T20:07:30;20.80;48.20
58363;DHT22;54977;51.510;7.522;2022-07-23T20:12:32;20.60;49.10
58363;DHT22;54977;51.510;7.522;2022-07-23T20:17:34;20.40;49.80
58363;DHT22;54977;51.510;7.522;2022-07-23T20:22:37;20.20;50.70
58363;DHT22;54977;51.510;7.522;2022-07-23T20:27:39;20.10;51.10
58363;DHT22;54977;51.510;7.522;2022-07-23T20:32:41;20.00;51.70
58363;DHT22;54977;51.510;7.522;2022-07-23T20:37:44;19.90;52.00
58363;DHT22;54977;51.510;7.522;2022-07-23T20:42:46;19.70;52.80
58363;DHT22;54977;51.510;7.522;2022-07-23T20:47:48;19.50;53.30
58363;DHT22;54977;51.510;7.522;2022-07-23T20:52:51;19.50;52.90
58363;DHT22;54977;51.510;7.522;2022-07-23T20:57:53;19.40;53.20
58363;DHT22;54977;51.510;7.522;2022-07-23T21:02:55;19.40;53.30
58363;DHT22;54977;51.510;7.522;2022-07-23T21:07:58;19.40;52.90
58363;DHT22;54977;51.510;7.522;2022-07-23T21:13:00;19.20;53.50
58363;DHT22;54977;51.510;7.522;2022-07-23T21:18:02;19.20;54.10
58363;DHT22;54977;51.510;7.522;2022-07-23T21:23:05;19.10;54.30
58363;DHT22;54977;51.510;7.522;2022-07-23T21:28:07;19.10;54.10
58363;DHT22;54977;51.510;7.522;2022-07-23T21:33:09;19.00;54.10
58363;DHT22;54977;51.510;7.522;2022-07-23T21:38:12;19.00;54.50
58363;DHT22;54977;51.510;7.522;2022-07-23T21:43:14;19.00;55.00
58363;DHT22;54977;51.510;7.522;2022-07-23T21:48:16;18.90;55.40
58363;DHT22;54977;51.510;7.522;2022-07-23T21:53:20;18.80;55.60
58363;DHT22;54977;51.510;7.522;2022-07-23T21:58:22;18.70;55.90
58363;DHT22;54977;51.510;7.522;2022-07-23T22:03:24;18.70;55.70
58363;DHT22;54977;51.510;7.522;2022-07-23T22:08:27;18.60;56.00
58363;DHT22;54977;51.510;7.522;2022-07-23T22:13:29;18.60;55.90
58363;DHT22;54977;51.510;7.522;2022-07-23T22:18:31;18.50;56.20
58363;DHT22;54977;51.510;7.522;2022-07-23T22:23:34;18.40;56.40
58363;DHT22;54977;51.510;7.522;2022-07-23T22:28:36;18.40;56.60
58363;DHT22;54977;51.510;7.522;2022-07-23T22:33:38;18.30;56.40
58363;DHT22;54977;51.510;7.522;2022-07-23T22:38:41;18.30;56.40
58363;DHT22;54977;51.510;7.522;2022-07-23T22:43:43;18.20;56.80
58363;DHT22;54977;51.510;7.522;2022-07-23T22:48:45;18.10;56.80
58363;DHT22;54977;51.510;7.522;2022-07-23T22:53:48;18.10;57.00
58363;DHT22;54977;51.510;7.522;2022-07-23T22:58:50;18.00;57.00
58363;DHT22;54977;51.510;7.522;2022-07-23T23:03:52;18.00;57.00
58363;DHT22;54977;51.510;7.522;2022-07-23T23:08:55;18.00;57.20
58363;DHT22;54977;51.510;7.522;2022-07-23T23:13:58;17.90;57.40
58363;DHT22;54977;51.510;7.522;2022-07-23T23:19:00;17.90;57.60
58363;DHT22;54977;51.510;7.522;2022-07-23T23:24:04;17.80;57.70
58363;DHT22;54977;51.510;7.522;2022-07-23T23:29:06;17.80;57.80
58363;DHT22;54977;51.510;7.522;2022-07-23T23:34:08;17.80;57.60
58363;DHT22;54977;51.510;7.522;2022-07-23T23:39:11;17.70;57.70
58363;DHT22;54977;51.510;7.522;2022-07-23T23:44:13;17.70;58.10
58363;DHT22;54977;51.510;7.522;2022-07-23T23:49:17;17.70;58.50
58363;DHT22;54977;51.510;7.522;2022-07-23T23:54:20;17.60;59.00
58363;DHT22;54977;51.510;7.522;2022-07-23T23:59:22;17.70;58.40
